sensor_id;sensor_type;location;lat;lon;timestamp;P1;durP1;ratioP1;P2;durP2;ratioP2
3050;SDS011;1535;51.098;6.414;2024-01-10T00:00:44;14.63;;;14.13;;
3050;SDS011;1535;51.098;6.414;2024-01-10T00:03:11;15.33;;;14.83;;
3050;SDS011;1535;51.098;6.414;2024-01-10T00:05:38;15.07;;;14.57;;
3050;SDS011;1535;51.098;6.414;2024-01-10T00:08:05;14.43;;;13.93;;
3050;SDS011;1535;51.098;6.414;2024-01-10T00:10:32;14.10;;;13.70;;
3050;SDS011;1535;51.098;6.414;2024-01-10T00:12:59;14.90;;;14.40;;
3050;SDS011;1535;51.098;6.414;2024-01-10T00:15:28;14.87;;;14.37;;
3050;SDS011;1535;51.098;6.414;2024-01-10T00:17:55;14.53;;;14.03;;
3050;SDS011;1535;51.098;6.414;2024-01-10T00:20:22;14.63;;;14.13;;
3050;SDS011;1535;51.098;6.414;2024-01-10T00:22:50;14.57;;;14.07;;
3050;SDS011;1535;51.098;6.414;2024-01-10T00:25:17;14.73;;;14.23;;
3050;SDS011;1535;51.098;6.414;2024-01-10T00:27:44;15.03;;;14.53;;
3050;SDS011;1535;51.098;6.414;2024-01-10T00:30:11;14.47;;;13.97;;
3050;SDS011;1535;51.098;6.414;2024-01-10T00:32:39;14.30;;;13.80;;
3050;SDS011;1535;51.098;6.414;2024-01-10T00:35:06;14.97;;;14.47;;
3050;SDS011;1535;51.098;6.414;2024-01-10T00:37:33;14.33;;;13.83;;
3050;SDS011;1535;51.098;6.414;2024-01-10T00:40:01;15.23;;;14.73;;
3050;SDS011;1535;51.098;6.414;2024-01-10T00:42:28;15.30;;;14.80;;
3050;SDS011;1535;51.098;6.414;2024-01-10T00:44:55;14.87;;;14.37;;
3050;SDS011;1535;51.098;6.414;2024-01-10T00:47:22;15.40;;;14.90;;
3050;SDS011;1535;51.098;6.414;2024-01-10T00:49:51;15.13;;;14.63;;
3050;SDS011;1535;51.098;6.414;2024-01-10T00:52:19;15.00;;;14.50;;
3050;SDS011;1535;51.098;6.414;2024-01-10T00:54:46;15.00;;;14.50;;
3050;SDS011;1535;51.098;6.414;2024-01-10T00:57:13;14.47;;;13.97;;
3050;SDS011;1535;51.098;6.414;2024-01-10T00:59:40;14.50;;;14.00;;
3050;SDS011;1535;51.098;6.414;2024-01-10T01:02:07;14.80;;;14.30;;
3050;SDS011;1535;51.098;6.414;2024-01-10T01:04:36;14.63;;;14.13;;
3050;SDS011;1535;51.098;6.414;2024-01-10T01:07:04;14.93;;;14.43;;
3050;SDS011;1535;51.098;6.414;2024-01-10T01:09:31;14.87;;;14.37;;
3050;SDS011;1535;51.098;6.414;2024-01-10T01:11:59;14.50;;;14.00;;
3050;SDS011;1535;51.098;6.414;2024-01-10T01:14:26;15.03;;;14.53;;
3050;SDS011;1535;51.098;6.414;2024-01-10T01:16:53;14.53;;;14.03;;
3050;SDS011;1535;51.098;6.414;2024-01-10T01:19:20;14.87;;;14.37;;
3050;SDS011;1535;51.098;6.414;2024-01-10T01:21:47;14.53;;;14.03;;
3050;SDS011;1535;51.098;6.414;2024-01-10T01:24:15;14.70;;;14.20;;
3050;SDS011;1535;51.098;6.414;2024-01-10T01:26:42;14.47;;;13.97;;
3050;SDS011;1535;51.098;6.414;2024-01-10T01:29:09;14.87;;;14.37;;
3050;SDS011;1535;51.098;6.414;2024-01-10T01:31:36;15.07;;;14.57;;
3050;SDS011;1535;51.098;6.414;2024-01-10T01:34:04;14.67;;;14.17;;
3050;SDS011;1535;51.098;6.414;2024-01-10T01:36:31;14.27;;;13.77;;
3050;SDS011;1535;51.098;6.414;2024-01-10T01:39:00;14.70;;;14.20;;
3050;SDS011;1535;51.098;6.414;2024-01-10T01:41:31;14.77;;;14.27;;
3050;SDS011;1535;51.098;6.414;2024-01-10T01:43:58;14.90;;;14.40;;
3050;SDS011;1535;51.098;6.414;2024-01-10T01:46:24;14.63;;;14.13;;
3050;SDS011;1535;51.098;6.414;2024-01-10T01:48:52;14.30;;;13.80;;
3050;SDS011;1535;51.098;6.414;2024-01-10T01:51:20;14.77;;;14.27;;
3050;SDS011;1535;51.098;6.414;2024-01-10T01:53:48;14.40;;;13.90;;
3050;SDS011;1535;51.098;6.414;2024-01-10T01:56:16;15.00;;;14.50;;
3050;SDS011;1535;51.098;6.414;2024-01-10T01:58:44;15.27;;;14.77;;
3050;SDS011;1535;51.098;6.414;2024-01-10T02:01:12;14.67;;;14.17;;
3050;SDS011;1535;51.098;6.414;2024-01-10T02:03:40;14.53;;;14.03;;
3050;SDS011;1535;51.098;6.414;2024-01-10T02:06:07;14.57;;;14.07;;
3050;SDS011;1535;51.098;6.414;2024-01-10T02:08:34;13.87;;;13.47;;
3050;SDS011;1535;51.098;6.414;2024-01-10T02:11:02;14.63;;;14.13;;
3050;SDS011;1535;51.098;6.414;2024-01-10T02:13:30;14.70;;;14.20;;
3050;SDS011;1535;51.098;6.414;2024-01-10T02:15:59;15.20;;;14.70;;
3050;SDS011;1535;51.098;6.414;2024-01-10T02:18:26;14.43;;;13.93;;
3050;SDS011;1535;51.098;6.414;2024-01-10T02:20:53;14.87;;;14.37;;
3050;SDS011;1535;51.098;6.414;2024-01-10T02:23:20;14.50;;;14.00;;
3050;SDS011;1535;51.098;6.414;2024-01-10T02:25:48;14.40;;;13.90;;
3050;SDS011;1535;51.098;6.414;2024-01-10T02:28:15;14.93;;;14.43;;
3050;SDS011;1535;51.098;6.414;2024-01-10T02:30:42;14.50;;;14.00;;
3050;SDS011;1535;51.098;6.414;2024-01-10T02:33:09;14.83;;;14.33;;
3050;SDS011;1535;51.098;6.414;2024-01-10T02:35:36;14.67;;;14.17;;
3050;SDS011;1535;51.098;6.414;2024-01-10T02:38:03;15.27;;;14.77;;
3050;SDS011;1535;51.098;6.414;2024-01-10T02:40:30;15.20;;;14.70;;
3050;SDS011;1535;51.098;6.414;2024-01-10T02:42:59;15.00;;;14.50;;
3050;SDS011;1535;51.098;6.414;2024-01-10T02:45:27;15.03;;;14.53;;
3050;SDS011;1535;51.098;6.414;2024-01-10T02:47:54;14.63;;;14.13;;
3050;SDS011;1535;51.098;6.414;2024-01-10T02:50:21;14.70;;;14.20;;
3050;SDS011;1535;51.098;6.414;2024-01-10T02:52:48;15.00;;;14.50;;
3050;SDS011;1535;51.098;6.414;2024-01-10T02:55:16;14.60;;;14.10;;
3050;SDS011;1535;51.098;6.414;2024-01-10T02:57:43;14.23;;;13.80;;
3050;SDS011;1535;51.098;6.414;2024-01-10T03:00:13;14.30;;;13.80;;
3050;SDS011;1535;51.098;6.414;2024-01-10T03:02:40;14.47;;;13.97;;
3050;SDS011;1535;51.098;6.414;2024-01-10T03:05:08;14.90;;;14.40;;
3050;SDS011;1535;51.098;6.414;2024-01-10T03:07:35;14.70;;;14.20;;
3050;SDS011;1535;51.098;6.414;2024-01-10T03:10:02;14.93;;;14.43;;
3050;SDS011;1535;51.098;6.414;2024-01-10T03:12:29;15.07;;;14.57;;
3050;SDS011;1535;51.098;6.414;2024-01-10T03:14:57;15.37;;;14.87;;
3050;SDS011;1535;51.098;6.414;2024-01-10T03:17:26;15.40;;;14.90;;
3050;SDS011;1535;51.098;6.414;2024-01-10T03:19:53;14.67;;;14.17;;
3050;SDS011;1535;51.098;6.414;2024-01-10T03:22:20;15.57;;;15.07;;
3050;SDS011;1535;51.098;6.414;2024-01-10T03:24:47;14.97;;;14.47;;
3050;SDS011;1535;51.098;6.414;2024-01-10T03:27:14;14.80;;;14.30;;
3050;SDS011;1535;51.098;6.414;2024-01-10T03:29:41;14.63;;;14.13;;
3050;SDS011;1535;51.098;6.414;2024-01-10T03:32:08;14.90;;;14.40;;
3050;SDS011;1535;51.098;6.414;2024-01-10T03:34:37;14.87;;;14.37;;
3050;SDS011;1535;51.098;6.414;2024-01-10T03:37:04;15.07;;;14.57;;
3050;SDS011;1535;51.098;6.414;2024-01-10T03:39:45;14.73;;;14.23;;
3050;SDS011;1535;51.098;6.414;2024-01-10T03:42:13;15.10;;;14.60;;
3050;SDS011;1535;51.098;6.414;2024-01-10T03:44:40;14.67;;;14.17;;
3050;SDS011;1535;51.098;6.414;2024-01-10T03:47:08;15.40;;;14.90;;
3050;SDS011;1535;51.098;6.414;2024-01-10T03:49:35;14.60;;;14.10;;
3050;SDS011;1535;51.098;6.414;2024-01-10T03:52:03;15.00;;;14.50;;
3050;SDS011;1535;51.098;6.414;2024-01-10T03:54:31;15.10;;;14.60;;
3050;SDS011;1535;51.098;6.414;2024-01-10T03:56:58;15.50;;;15.00;;
3050;SDS011;1535;51.098;6.414;2024-01-10T03:59:26;15.47;;;14.97;;
3050;SDS011;1535;51.098;6.414;2024-01-10T04:01:53;14.90;;;14.40;;
3050;SDS011;1535;51.098;6.414;2024-01-10T04:04:20;15.03;;;14.53;;
3050;SDS011;1535;51.098;6.414;2024-01-10T04:06:48;14.87;;;14.37;;
3050;SDS011;1535;51.098;6.414;2024-01-10T04:09:15;15.30;;;14.80;;
3050;SDS011;1535;51.098;6.414;2024-01-10T04:11:42;15.60;;;15.07;;
3050;SDS011;1535;51.098;6.414;2024-01-10T04:14:09;15.73;;;15.13;;
3050;SDS011;1535;51.098;6.414;2024-01-10T04:16:36;15.90;;;15.30;;
3050;SDS011;1535;51.098;6.414;2024-01-10T04:19:02;15.73;;;15.13;;
3050;SDS011;1535;51.098;6.414;2024-01-10T04:21:29;15.90;;;15.30;;
3050;SDS011;1535;51.098;6.414;2024-01-10T04:23:57;15.20;;;14.70;;
3050;SDS011;1535;51.098;6.414;2024-01-10T04:26:24;15.30;;;14.80;;
3050;SDS011;1535;51.098;6.414;2024-01-10T04:28:52;15.43;;;14.93;;
3050;SDS011;1535;51.098;6.414;2024-01-10T04:31:19;15.23;;;14.73;;
3050;SDS011;1535;51.098;6.414;2024-01-10T04:33:46;15.47;;;14.97;;
3050;SDS011;1535;51.098;6.414;2024-01-10T04:36:13;15.03;;;14.53;;
3050;SDS011;1535;51.098;6.414;2024-01-10T04:38:40;15.23;;;14.73;;
3050;SDS011;1535;51.098;6.414;2024-01-10T04:41:08;14.50;;;14.00;;
3050;SDS011;1535;51.098;6.414;2024-01-10T04:43:35;14.80;;;14.30;;
3050;SDS011;1535;51.098;6.414;2024-01-10T04:46:02;15.13;;;14.63;;
3050;SDS011;1535;51.098;6.414;2024-01-10T04:48:29;15.10;;;14.60;;
3050;SDS011;1535;51.098;6.414;2024-01-10T04:50:56;15.20;;;14.70;;
3050;SDS011;1535;51.098;6.414;2024-01-10T04:53:24;15.30;;;14.80;;
3050;SDS011;1535;51.098;6.414;2024-01-10T04:55:51;15.40;;;14.90;;
3050;SDS011;1535;51.098;6.414;2024-01-10T04:58:19;15.47;;;14.97;;
3050;SDS011;1535;51.098;6.414;2024-01-10T05:00:46;15.70;;;15.13;;
3050;SDS011;1535;51.098;6.414;2024-01-10T05:03:13;16.13;;;15.53;;
3050;SDS011;1535;51.098;6.414;2024-01-10T05:05:41;15.30;;;14.80;;
3050;SDS011;1535;51.098;6.414;2024-01-10T05:08:07;15.43;;;14.93;;
3050;SDS011;1535;51.098;6.414;2024-01-10T05:10:34;15.50;;;15.00;;
3050;SDS011;1535;51.098;6.414;2024-01-10T05:13:01;15.17;;;14.67;;
3050;SDS011;1535;51.098;6.414;2024-01-10T05:15:29;15.70;;;15.17;;
3050;SDS011;1535;51.098;6.414;2024-01-10T05:17:56;16.20;;;15.60;;
3050;SDS011;1535;51.098;6.414;2024-01-10T05:20:23;15.17;;;14.63;;
3050;SDS011;1535;51.098;6.414;2024-01-10T05:22:50;15.77;;;15.17;;
3050;SDS011;1535;51.098;6.414;2024-01-10T05:25:16;15.70;;;15.10;;
3050;SDS011;1535;51.098;6.414;2024-01-10T05:27:43;15.97;;;15.37;;
3050;SDS011;1535;51.098;6.414;2024-01-10T05:30:11;15.97;;;15.37;;
3050;SDS011;1535;51.098;6.414;2024-01-10T05:32:41;15.03;;;14.53;;
3050;SDS011;1535;51.098;6.414;2024-01-10T05:35:10;15.60;;;15.00;;
3050;SDS011;1535;51.098;6.414;2024-01-10T05:37:37;15.73;;;15.13;;
3050;SDS011;1535;51.098;6.414;2024-01-10T05:40:04;15.97;;;15.37;;
3050;SDS011;1535;51.098;6.414;2024-01-10T05:42:33;15.83;;;15.23;;
3050;SDS011;1535;51.098;6.414;2024-01-10T05:45:00;16.00;;;15.40;;
3050;SDS011;1535;51.098;6.414;2024-01-10T05:47:28;15.97;;;15.37;;
3050;SDS011;1535;51.098;6.414;2024-01-10T05:49:56;15.73;;;15.13;;
3050;SDS011;1535;51.098;6.414;2024-01-10T05:52:23;16.17;;;15.57;;
3050;SDS011;1535;51.098;6.414;2024-01-10T05:54:50;15.93;;;15.33;;
3050;SDS011;1535;51.098;6.414;2024-01-10T05:57:18;15.73;;;15.13;;
3050;SDS011;1535;51.098;6.414;2024-01-10T05:59:46;16.03;;;15.43;;
3050;SDS011;1535;51.098;6.414;2024-01-10T06:02:13;16.07;;;15.47;;
3050;SDS011;1535;51.098;6.414;2024-01-10T06:04:41;15.70;;;15.10;;
3050;SDS011;1535;51.098;6.414;2024-01-10T06:07:09;15.27;;;14.70;;
3050;SDS011;1535;51.098;6.414;2024-01-10T06:09:36;15.60;;;15.00;;
3050;SDS011;1535;51.098;6.414;2024-01-10T06:12:05;15.53;;;14.93;;
3050;SDS011;1535;51.098;6.414;2024-01-10T06:14:32;15.23;;;14.73;;
3050;SDS011;1535;51.098;6.414;2024-01-10T06:16:59;15.17;;;14.63;;
3050;SDS011;1535;51.098;6.414;2024-01-10T06:19:26;15.70;;;15.10;;
3050;SDS011;1535;51.098;6.414;2024-01-10T06:21:53;15.07;;;14.57;;
3050;SDS011;1535;51.098;6.414;2024-01-10T06:24:22;15.60;;;15.00;;
3050;SDS011;1535;51.098;6.414;2024-01-10T06:26:49;15.67;;;15.07;;
3050;SDS011;1535;51.098;6.414;2024-01-10T06:29:17;15.70;;;15.10;;
3050;SDS011;1535;51.098;6.414;2024-01-10T06:31:44;16.37;;;15.77;;
3050;SDS011;1535;51.098;6.414;2024-01-10T06:34:12;15.90;;;15.30;;
3050;SDS011;1535;51.098;6.414;2024-01-10T06:36:40;15.73;;;15.13;;
3050;SDS011;1535;51.098;6.414;2024-01-10T06:39:08;16.00;;;15.40;;
3050;SDS011;1535;51.098;6.414;2024-01-10T06:41:39;15.50;;;14.90;;
3050;SDS011;1535;51.098;6.414;2024-01-10T06:44:07;15.63;;;15.03;;
3050;SDS011;1535;51.098;6.414;2024-01-10T06:46:35;15.70;;;15.10;;
3050;SDS011;1535;51.098;6.414;2024-01-10T06:49:02;15.90;;;15.30;;
3050;SDS011;1535;51.098;6.414;2024-01-10T06:51:28;15.73;;;15.13;;
3050;SDS011;1535;51.098;6.414;2024-01-10T06:53:55;15.73;;;15.13;;
3050;SDS011;1535;51.098;6.414;2024-01-10T06:56:28;16.47;;;15.87;;
3050;SDS011;1535;51.098;6.414;2024-01-10T06:58:56;16.50;;;15.90;;
3050;SDS011;1535;51.098;6.414;2024-01-10T07:01:24;16.03;;;15.43;;
3050;SDS011;1535;51.098;6.414;2024-01-10T07:03:51;15.90;;;15.30;;
3050;SDS011;1535;51.098;6.414;2024-01-10T07:06:19;16.30;;;15.70;;
3050;SDS011;1535;51.098;6.414;2024-01-10T07:08:47;16.50;;;15.90;;
3050;SDS011;1535;51.098;6.414;2024-01-10T07:11:15;16.00;;;15.40;;
3050;SDS011;1535;51.098;6.414;2024-01-10T07:13:43;16.13;;;15.53;;
3050;SDS011;1535;51.098;6.414;2024-01-10T07:16:11;16.00;;;15.40;;
3050;SDS011;1535;51.098;6.414;2024-01-10T07:18:40;16.20;;;15.60;;
3050;SDS011;1535;51.098;6.414;2024-01-10T07:21:08;15.87;;;15.27;;
3050;SDS011;1535;51.098;6.414;2024-01-10T07:23:35;16.17;;;15.57;;
3050;SDS011;1535;51.098;6.414;2024-01-10T07:26:03;16.40;;;15.80;;
3050;SDS011;1535;51.098;6.414;2024-01-10T07:28:30;16.17;;;15.57;;
3050;SDS011;1535;51.098;6.414;2024-01-10T07:30:57;16.13;;;15.53;;
3050;SDS011;1535;51.098;6.414;2024-01-10T07:33:27;16.50;;;15.90;;
3050;SDS011;1535;51.098;6.414;2024-01-10T07:35:55;16.10;;;15.50;;
3050;SDS011;1535;51.098;6.414;2024-01-10T07:38:22;16.73;;;16.03;;
3050;SDS011;1535;51.098;6.414;2024-01-10T07:40:49;16.57;;;15.97;;
3050;SDS011;1535;51.098;6.414;2024-01-10T07:43:16;16.33;;;15.73;;
3050;SDS011;1535;51.098;6.414;2024-01-10T07:45:43;16.33;;;15.73;;
3050;SDS011;1535;51.098;6.414;2024-01-10T07:48:09;15.73;;;15.13;;
3050;SDS011;1535;51.098;6.414;2024-01-10T07:50:38;16.20;;;15.60;;
3050;SDS011;1535;51.098;6.414;2024-01-10T07:53:05;16.10;;;15.50;;
3050;SDS011;1535;51.098;6.414;2024-01-10T07:55:32;15.40;;;14.80;;
3050;SDS011;1535;51.098;6.414;2024-01-10T07:57:59;16.37;;;15.77;;
3050;SDS011;1535;51.098;6.414;2024-01-10T08:00:26;16.03;;;15.43;;
3050;SDS011;1535;51.098;6.414;2024-01-10T08:02:55;15.80;;;15.20;;
3050;SDS011;1535;51.098;6.414;2024-01-10T08:05:23;16.10;;;15.50;;
3050;SDS011;1535;51.098;6.414;2024-01-10T08:07:51;16.63;;;16.03;;
3050;SDS011;1535;51.098;6.414;2024-01-10T08:10:18;16.80;;;16.20;;
3050;SDS011;1535;51.098;6.414;2024-01-10T08:12:45;16.20;;;15.60;;
3050;SDS011;1535;51.098;6.414;2024-01-10T08:15:11;16.00;;;15.40;;
3050;SDS011;1535;51.098;6.414;2024-01-10T08:17:39;15.93;;;15.33;;
3050;SDS011;1535;51.098;6.414;2024-01-10T08:20:06;15.70;;;15.10;;
3050;SDS011;1535;51.098;6.414;2024-01-10T08:22:35;17.10;;;16.40;;
3050;SDS011;1535;51.098;6.414;2024-01-10T08:25:04;16.47;;;15.87;;
3050;SDS011;1535;51.098;6.414;2024-01-10T08:27:32;15.80;;;15.20;;
3050;SDS011;1535;51.098;6.414;2024-01-10T08:30:00;15.53;;;14.97;;
3050;SDS011;1535;51.098;6.414;2024-01-10T08:32:29;16.00;;;15.40;;
3050;SDS011;1535;51.098;6.414;2024-01-10T08:34:56;15.67;;;15.07;;
3050;SDS011;1535;51.098;6.414;2024-01-10T08:37:23;15.67;;;15.07;;
3050;SDS011;1535;51.098;6.414;2024-01-10T08:39:50;15.83;;;15.23;;
3050;SDS011;1535;51.098;6.414;2024-01-10T08:42:18;15.70;;;15.10;;
3050;SDS011;1535;51.098;6.414;2024-01-10T08:44:45;16.30;;;15.70;;
3050;SDS011;1535;51.098;6.414;2024-01-10T08:47:11;16.30;;;15.70;;
3050;SDS011;1535;51.098;6.414;2024-01-10T08:49:39;15.87;;;15.27;;
3050;SDS011;1535;51.098;6.414;2024-01-10T08:52:05;15.57;;;14.97;;
3050;SDS011;1535;51.098;6.414;2024-01-10T08:54:33;16.03;;;15.43;;
3050;SDS011;1535;51.098;6.414;2024-01-10T08:56:59;15.97;;;15.37;;
3050;SDS011;1535;51.098;6.414;2024-01-10T08:59:29;15.00;;;14.50;;
3050;SDS011;1535;51.098;6.414;2024-01-10T09:01:56;15.40;;;14.80;;
3050;SDS011;1535;51.098;6.414;2024-01-10T09:04:22;15.83;;;15.23;;
3050;SDS011;1535;51.098;6.414;2024-01-10T09:06:50;16.37;;;15.77;;
3050;SDS011;1535;51.098;6.414;2024-01-10T09:09:17;16.10;;;15.50;;
3050;SDS011;1535;51.098;6.414;2024-01-10T09:11:45;16.00;;;15.40;;
3050;SDS011;1535;51.098;6.414;2024-01-10T09:14:13;16.67;;;16.00;;
3050;SDS011;1535;51.098;6.414;2024-01-10T09:16:41;16.27;;;15.67;;
3050;SDS011;1535;51.098;6.414;2024-01-10T09:19:08;16.57;;;15.97;;
3050;SDS011;1535;51.098;6.414;2024-01-10T09:21:35;16.13;;;15.53;;
3050;SDS011;1535;51.098;6.414;2024-01-10T09:24:02;16.57;;;15.87;;
3050;SDS011;1535;51.098;6.414;2024-01-10T09:26:30;16.63;;;15.93;;
3050;SDS011;1535;51.098;6.414;2024-01-10T09:28:57;16.73;;;16.03;;
3050;SDS011;1535;51.098;6.414;2024-01-10T09:31:24;16.33;;;15.73;;
3050;SDS011;1535;51.098;6.414;2024-01-10T09:33:52;17.07;;;16.37;;
3050;SDS011;1535;51.098;6.414;2024-01-10T09:36:19;17.27;;;16.57;;
3050;SDS011;1535;51.098;6.414;2024-01-10T09:38:46;16.50;;;15.80;;
3050;SDS011;1535;51.098;6.414;2024-01-10T09:41:12;16.80;;;16.10;;
3050;SDS011;1535;51.098;6.414;2024-01-10T09:43:40;16.57;;;15.87;;
3050;SDS011;1535;51.098;6.414;2024-01-10T09:46:07;16.70;;;16.00;;
3050;SDS011;1535;51.098;6.414;2024-01-10T09:48:35;16.23;;;15.63;;
3050;SDS011;1535;51.098;6.414;2024-01-10T09:51:03;16.07;;;15.47;;
3050;SDS011;1535;51.098;6.414;2024-01-10T09:53:31;17.47;;;16.77;;
3050;SDS011;1535;51.098;6.414;2024-01-10T09:56:03;16.70;;;16.00;;
3050;SDS011;1535;51.098;6.414;2024-01-10T09:58:30;16.57;;;15.87;;
3050;SDS011;1535;51.098;6.414;2024-01-10T10:01:04;16.83;;;16.13;;
3050;SDS011;1535;51.098;6.414;2024-01-10T10:03:30;16.43;;;15.73;;
3050;SDS011;1535;51.098;6.414;2024-01-10T10:06:01;17.57;;;16.87;;
3050;SDS011;1535;51.098;6.414;2024-01-10T10:08:30;17.50;;;16.80;;
3050;SDS011;1535;51.098;6.414;2024-01-10T10:10:57;16.63;;;15.93;;
3050;SDS011;1535;51.098;6.414;2024-01-10T10:13:24;17.80;;;17.00;;
3050;SDS011;1535;51.098;6.414;2024-01-10T10:15:58;17.40;;;16.70;;
3050;SDS011;1535;51.098;6.414;2024-01-10T10:18:26;17.17;;;16.47;;
3050;SDS011;1535;51.098;6.414;2024-01-10T10:21:10;17.33;;;16.63;;
3050;SDS011;1535;51.098;6.414;2024-01-10T10:23:38;17.30;;;16.60;;
3050;SDS011;1535;51.098;6.414;2024-01-10T10:26:10;17.57;;;16.87;;
3050;SDS011;1535;51.098;6.414;2024-01-10T10:28:39;18.40;;;17.60;;
3050;SDS011;1535;51.098;6.414;2024-01-10T10:31:07;18.43;;;17.63;;
3050;SDS011;1535;51.098;6.414;2024-01-10T10:33:33;18.20;;;17.40;;
3050;SDS011;1535;51.098;6.414;2024-01-10T10:36:00;18.30;;;17.50;;
3050;SDS011;1535;51.098;6.414;2024-01-10T10:38:29;17.17;;;16.47;;
3050;SDS011;1535;51.098;6.414;2024-01-10T10:40:56;17.13;;;16.43;;
3050;SDS011;1535;51.098;6.414;2024-01-10T10:43:25;18.03;;;17.23;;
3050;SDS011;1535;51.098;6.414;2024-01-10T10:45:52;18.03;;;17.23;;
3050;SDS011;1535;51.098;6.414;2024-01-10T10:48:20;18.07;;;17.27;;
3050;SDS011;1535;51.098;6.414;2024-01-10T10:50:50;17.93;;;17.13;;
3050;SDS011;1535;51.098;6.414;2024-01-10T10:53:29;18.20;;;17.40;;
3050;SDS011;1535;51.098;6.414;2024-01-10T10:55:57;17.20;;;16.50;;
3050;SDS011;1535;51.098;6.414;2024-01-10T10:58:26;17.03;;;16.33;;
3050;SDS011;1535;51.098;6.414;2024-01-10T11:00:53;17.23;;;16.53;;
3050;SDS011;1535;51.098;6.414;2024-01-10T11:03:21;17.20;;;16.50;;
3050;SDS011;1535;51.098;6.414;2024-01-10T11:05:49;17.83;;;17.13;;
3050;SDS011;1535;51.098;6.414;2024-01-10T11:08:17;17.20;;;16.50;;
3050;SDS011;1535;51.098;6.414;2024-01-10T11:10:49;17.27;;;16.57;;
3050;SDS011;1535;51.098;6.414;2024-01-10T11:13:28;17.70;;;17.00;;
3050;SDS011;1535;51.098;6.414;2024-01-10T11:19:14;17.07;;;16.37;;
3050;SDS011;1535;51.098;6.414;2024-01-10T11:22:00;17.10;;;16.40;;
3050;SDS011;1535;51.098;6.414;2024-01-10T11:24:39;17.30;;;16.60;;
3050;SDS011;1535;51.098;6.414;2024-01-10T11:27:09;16.67;;;15.97;;
3050;SDS011;1535;51.098;6.414;2024-01-10T11:29:37;16.70;;;16.00;;
3050;SDS011;1535;51.098;6.414;2024-01-10T11:32:05;16.63;;;15.93;;
3050;SDS011;1535;51.098;6.414;2024-01-10T11:34:34;16.43;;;15.80;;
3050;SDS011;1535;51.098;6.414;2024-01-10T11:37:11;16.50;;;15.80;;
3050;SDS011;1535;51.098;6.414;2024-01-10T11:39:40;16.77;;;16.07;;
3050;SDS011;1535;51.098;6.414;2024-01-10T11:42:09;17.00;;;16.30;;
3050;SDS011;1535;51.098;6.414;2024-01-10T11:44:46;17.20;;;16.50;;
3050;SDS011;1535;51.098;6.414;2024-01-10T11:47:14;16.90;;;16.20;;
3050;SDS011;1535;51.098;6.414;2024-01-10T11:49:52;17.33;;;16.63;;
3050;SDS011;1535;51.098;6.414;2024-01-10T11:52:21;17.50;;;16.80;;
3050;SDS011;1535;51.098;6.414;2024-01-10T11:54:48;17.87;;;17.07;;
3050;SDS011;1535;51.098;6.414;2024-01-10T11:57:20;17.37;;;16.67;;
3050;SDS011;1535;51.098;6.414;2024-01-10T11:59:50;17.27;;;16.57;;
3050;SDS011;1535;51.098;6.414;2024-01-10T12:02:19;17.67;;;16.87;;
3050;SDS011;1535;51.098;6.414;2024-01-10T12:04:47;17.70;;;16.90;;
3050;SDS011;1535;51.098;6.414;2024-01-10T12:07:14;17.47;;;16.77;;
3050;SDS011;1535;51.098;6.414;2024-01-10T12:09:42;17.30;;;16.60;;
3050;SDS011;1535;51.098;6.414;2024-01-10T12:12:09;17.73;;;16.93;;
3050;SDS011;1535;51.098;6.414;2024-01-10T12:14:38;17.40;;;16.70;;
3050;SDS011;1535;51.098;6.414;2024-01-10T12:17:06;17.40;;;16.70;;
3050;SDS011;1535;51.098;6.414;2024-01-10T12:19:33;17.20;;;16.50;;
3050;SDS011;1535;51.098;6.414;2024-01-10T12:22:00;16.73;;;16.03;;
3050;SDS011;1535;51.098;6.414;2024-01-10T12:24:29;17.17;;;16.47;;
3050;SDS011;1535;51.098;6.414;2024-01-10T12:26:57;17.07;;;16.37;;
3050;SDS011;1535;51.098;6.414;2024-01-10T12:29:24;17.60;;;16.90;;
3050;SDS011;1535;51.098;6.414;2024-01-10T12:31:52;16.77;;;16.07;;
3050;SDS011;1535;51.098;6.414;2024-01-10T12:34:20;17.27;;;16.57;;
3050;SDS011;1535;51.098;6.414;2024-01-10T12:36:47;16.90;;;16.20;;
3050;SDS011;1535;51.098;6.414;2024-01-10T12:39:14;16.60;;;15.90;;
3050;SDS011;1535;51.098;6.414;2024-01-10T12:41:42;16.23;;;15.53;;
3050;SDS011;1535;51.098;6.414;2024-01-10T12:44:10;16.27;;;15.57;;
3050;SDS011;1535;51.098;6.414;2024-01-10T12:46:49;16.87;;;16.17;;
3050;SDS011;1535;51.098;6.414;2024-01-10T12:49:18;17.03;;;16.33;;
3050;SDS011;1535;51.098;6.414;2024-01-10T12:51:46;16.57;;;15.87;;
3050;SDS011;1535;51.098;6.414;2024-01-10T12:54:13;17.40;;;16.70;;
3050;SDS011;1535;51.098;6.414;2024-01-10T12:56:40;16.23;;;15.53;;
3050;SDS011;1535;51.098;6.414;2024-01-10T12:59:07;17.10;;;16.40;;
3050;SDS011;1535;51.098;6.414;2024-01-10T13:01:35;17.40;;;16.70;;
3050;SDS011;1535;51.098;6.414;2024-01-10T13:04:03;16.70;;;16.00;;
3050;SDS011;1535;51.098;6.414;2024-01-10T13:06:31;17.40;;;16.70;;
3050;SDS011;1535;51.098;6.414;2024-01-10T13:08:58;17.00;;;16.30;;
3050;SDS011;1535;51.098;6.414;2024-01-10T13:11:25;16.10;;;15.50;;
3050;SDS011;1535;51.098;6.414;2024-01-10T13:13:52;17.10;;;16.40;;
3050;SDS011;1535;51.098;6.414;2024-01-10T13:16:18;17.00;;;16.30;;
3050;SDS011;1535;51.098;6.414;2024-01-10T13:18:45;17.03;;;16.33;;
3050;SDS011;1535;51.098;6.414;2024-01-10T13:21:12;18.07;;;17.27;;
3050;SDS011;1535;51.098;6.414;2024-01-10T13:23:40;17.70;;;16.93;;
3050;SDS011;1535;51.098;6.414;2024-01-10T13:26:07;17.50;;;16.80;;
3050;SDS011;1535;51.098;6.414;2024-01-10T13:28:34;17.53;;;16.83;;
3050;SDS011;1535;51.098;6.414;2024-01-10T13:31:01;17.23;;;16.53;;
3050;SDS011;1535;51.098;6.414;2024-01-10T13:33:29;18.10;;;17.30;;
3050;SDS011;1535;51.098;6.414;2024-01-10T13:35:56;17.60;;;16.90;;
3050;SDS011;1535;51.098;6.414;2024-01-10T13:38:24;17.73;;;17.03;;
3050;SDS011;1535;51.098;6.414;2024-01-10T13:40:52;17.67;;;16.97;;
3050;SDS011;1535;51.098;6.414;2024-01-10T13:43:19;17.27;;;16.57;;
3050;SDS011;1535;51.098;6.414;2024-01-10T13:45:45;16.90;;;16.20;;
3050;SDS011;1535;51.098;6.414;2024-01-10T13:48:13;17.03;;;16.33;;
3050;SDS011;1535;51.098;6.414;2024-01-10T13:50:40;17.27;;;16.57;;
3050;SDS011;1535;51.098;6.414;2024-01-10T13:53:13;17.03;;;16.33;;
3050;SDS011;1535;51.098;6.414;2024-01-10T13:55:51;16.90;;;16.20;;
3050;SDS011;1535;51.098;6.414;2024-01-10T13:58:27;17.20;;;16.50;;
3050;SDS011;1535;51.098;6.414;2024-01-10T14:01:01;17.30;;;16.60;;
3050;SDS011;1535;51.098;6.414;2024-01-10T14:03:31;17.97;;;17.17;;
3050;SDS011;1535;51.098;6.414;2024-01-10T14:05:58;17.33;;;16.63;;
3050;SDS011;1535;51.098;6.414;2024-01-10T14:08:26;17.40;;;16.60;;
3050;SDS011;1535;51.098;6.414;2024-01-10T14:10:55;17.10;;;16.40;;
3050;SDS011;1535;51.098;6.414;2024-01-10T14:13:23;16.20;;;15.60;;
3050;SDS011;1535;51.098;6.414;2024-01-10T14:15:53;16.53;;;15.90;;
3050;SDS011;1535;51.098;6.414;2024-01-10T14:18:21;16.70;;;16.00;;
3050;SDS011;1535;51.098;6.414;2024-01-10T14:20:50;17.00;;;16.30;;
3050;SDS011;1535;51.098;6.414;2024-01-10T14:23:17;17.27;;;16.57;;
3050;SDS011;1535;51.098;6.414;2024-01-10T14:25:47;16.77;;;16.07;;
3050;SDS011;1535;51.098;6.414;2024-01-10T14:28:23;16.60;;;15.90;;
3050;SDS011;1535;51.098;6.414;2024-01-10T14:30:55;16.97;;;16.27;;
3050;SDS011;1535;51.098;6.414;2024-01-10T14:33:22;16.73;;;16.03;;
3050;SDS011;1535;51.098;6.414;2024-01-10T14:35:57;16.80;;;16.10;;
3050;SDS011;1535;51.098;6.414;2024-01-10T14:38:29;17.20;;;16.50;;
3050;SDS011;1535;51.098;6.414;2024-01-10T14:41:06;16.90;;;16.20;;
3050;SDS011;1535;51.098;6.414;2024-01-10T14:43:40;16.80;;;16.10;;
3050;SDS011;1535;51.098;6.414;2024-01-10T14:46:06;17.20;;;16.50;;
3050;SDS011;1535;51.098;6.414;2024-01-10T14:48:38;17.00;;;16.30;;
3050;SDS011;1535;51.098;6.414;2024-01-10T14:51:07;16.97;;;16.27;;
3050;SDS011;1535;51.098;6.414;2024-01-10T14:53:42;17.17;;;16.47;;
3050;SDS011;1535;51.098;6.414;2024-01-10T14:56:22;17.00;;;16.30;;